createdAt,value
2022-11-25T00:01:07.627Z,3.90
2022-11-25T00:03:36.351Z,4.00
2022-11-25T00:06:12.732Z,4.00
2022-11-25T00:08:41.077Z,4.00
2022-11-25T00:11:11.257Z,3.90
2022-11-25T00:13:40.400Z,3.80
2022-11-25T00:16:10.723Z,3.80
2022-11-25T00:18:38.887Z,3.70
2022-11-25T00:21:08.359Z,3.70
2022-11-25T00:23:37.095Z,3.70
2022-11-25T00:26:11.668Z,3.70
2022-11-25T00:28:40.621Z,3.60
2022-11-25T00:31:09.787Z,3.50
2022-11-25T00:33:37.825Z,3.50
2022-11-25T00:36:08.226Z,3.60
2022-11-25T00:38:36.160Z,3.80
2022-11-25T00:41:21.358Z,3.80
2022-11-25T00:44:08.251Z,3.70
2022-11-25T00:46:36.160Z,3.50
2022-11-25T00:49:04.112Z,3.40
2022-11-25T00:51:32.037Z,3.30
2022-11-25T00:53:59.985Z,3.30
2022-11-25T00:56:28.072Z,3.20
2022-11-25T00:58:57.324Z,3.20
2022-11-25T01:01:26.283Z,3.20
2022-11-25T01:03:54.660Z,3.20
2022-11-25T01:06:23.087Z,3.10
2022-11-25T01:08:51.428Z,3.10
2022-11-25T01:11:21.698Z,3.10
2022-11-25T01:13:50.064Z,3.10
2022-11-25T01:16:20.928Z,3.00
2022-11-25T01:18:49.000Z,3.00
2022-11-25T01:21:19.075Z,3.10
2022-11-25T01:23:48.448Z,3.20
2022-11-25T01:26:18.526Z,3.30
2022-11-25T01:28:46.847Z,3.20
2022-11-25T01:31:16.793Z,3.20
2022-11-25T01:33:47.573Z,3.30
2022-11-25T01:36:17.417Z,3.30
2022-11-25T01:38:46.405Z,3.50
2022-11-25T01:41:15.722Z,3.50
2022-11-25T01:43:43.724Z,3.50
2022-11-25T01:46:23.765Z,3.70
2022-11-25T01:48:56.866Z,3.80
2022-11-25T01:51:30.371Z,3.90
2022-11-25T01:54:02.963Z,4.00
2022-11-25T01:56:34.630Z,4.00
2022-11-25T01:59:03.483Z,4.20
2022-11-25T02:01:32.046Z,4.20
2022-11-25T02:04:02.001Z,4.30
2022-11-25T02:06:36.231Z,4.40
2022-11-25T02:09:08.716Z,4.40
2022-11-25T02:11:40.012Z,4.40
2022-11-25T02:14:09.533Z,4.50
2022-11-25T02:16:37.529Z,4.50
2022-11-25T02:19:09.604Z,4.50
2022-11-25T02:21:45.481Z,4.50
2022-11-25T02:24:19.322Z,4.50
2022-11-25T02:26:48.717Z,4.50
2022-11-25T02:29:17.000Z,4.50
2022-11-25T02:31:45.395Z,4.50
2022-11-25T02:34:13.419Z,4.50
2022-11-25T02:36:41.639Z,4.50
2022-11-25T02:39:10.038Z,4.40
2022-11-25T02:41:40.771Z,4.50
2022-11-25T02:44:10.075Z,4.50
2022-11-25T02:46:38.169Z,4.50
2022-11-25T02:49:10.183Z,4.40
2022-11-25T02:51:40.019Z,4.40
2022-11-25T02:54:08.082Z,4.40
2022-11-25T02:56:37.283Z,4.40
2022-11-25T02:59:05.776Z,4.40
2022-11-25T03:01:36.420Z,4.40
2022-11-25T03:04:04.899Z,4.40
2022-11-25T03:06:33.266Z,4.40
2022-11-25T03:09:01.279Z,4.40
2022-11-25T03:11:43.222Z,4.40
2022-11-25T03:14:11.235Z,4.40
2022-11-25T03:16:40.807Z,4.40
2022-11-25T03:19:09.508Z,4.40
2022-11-25T03:21:37.482Z,4.40
2022-11-25T03:24:05.882Z,4.40
2022-11-25T03:26:34.321Z,4.40
2022-11-25T03:29:02.282Z,4.40
2022-11-25T03:31:30.406Z,4.40
2022-11-25T03:33:59.687Z,4.50
2022-11-25T03:36:27.571Z,4.50
2022-11-25T03:38:55.477Z,4.50
2022-11-25T03:41:23.471Z,4.50
2022-11-25T03:43:51.462Z,4.40
2022-11-25T03:46:19.672Z,4.60
2022-11-25T03:48:47.620Z,4.70
2022-11-25T03:51:16.871Z,4.70
2022-11-25T03:53:44.976Z,4.80
2022-11-25T03:56:12.958Z,4.70
2022-11-25T03:58:40.863Z,4.80
2022-11-25T04:01:08.800Z,4.80
2022-11-25T04:03:36.791Z,4.80
2022-11-25T04:06:04.974Z,4.80
2022-11-25T04:08:34.228Z,4.80
2022-11-25T04:11:02.413Z,4.90
2022-11-25T04:13:29.672Z,4.90
2022-11-25T04:15:58.026Z,4.90
2022-11-25T04:18:25.946Z,4.90
2022-11-25T04:20:53.923Z,5.00
2022-11-25T04:23:22.161Z,5.00
2022-11-25T04:25:52.207Z,5.00
2022-11-25T04:28:20.191Z,5.00
2022-11-25T04:30:48.130Z,5.00
2022-11-25T04:33:16.243Z,5.00
2022-11-25T04:35:44.145Z,5.00
2022-11-25T04:38:12.028Z,5.00
2022-11-25T04:40:39.912Z,5.00
2022-11-25T04:43:10.802Z,5.00
2022-11-25T04:45:58.984Z,4.90
2022-11-25T04:48:26.865Z,5.00
2022-11-25T04:50:54.736Z,5.00
2022-11-25T04:53:22.834Z,5.00
2022-11-25T04:55:50.971Z,4.90
2022-11-25T04:58:40.343Z,4.90
2022-11-25T05:01:07.323Z,4.80
2022-11-25T05:03:35.468Z,4.70
2022-11-25T05:06:07.270Z,4.60
2022-11-25T05:08:35.155Z,4.70
2022-11-25T05:11:03.277Z,4.90
2022-11-25T05:13:32.608Z,4.90
2022-11-25T05:16:01.008Z,5.00
2022-11-25T05:18:28.934Z,5.00
2022-11-25T05:20:56.815Z,5.00
2022-11-25T05:23:24.723Z,5.00
2022-11-25T05:25:52.658Z,5.00
2022-11-25T05:28:20.633Z,5.10
2022-11-25T05:30:49.938Z,5.10
2022-11-25T05:33:18.494Z,5.20
2022-11-25T05:35:46.387Z,5.20
2022-11-25T05:38:14.301Z,5.20
2022-11-25T05:40:42.413Z,5.20
2022-11-25T05:43:10.425Z,5.30
2022-11-25T05:45:40.131Z,5.30
2022-11-25T05:48:09.557Z,5.30
2022-11-25T05:50:39.022Z,5.30
2022-11-25T05:53:07.190Z,5.30
2022-11-25T05:55:35.249Z,5.30
2022-11-25T05:58:04.785Z,5.30
2022-11-25T06:00:32.826Z,5.30
2022-11-25T06:03:01.931Z,5.20
2022-11-25T06:05:31.478Z,5.20
2022-11-25T06:08:01.567Z,5.20
2022-11-25T06:10:29.628Z,5.20
2022-11-25T06:12:57.552Z,5.30
2022-11-25T06:15:25.488Z,5.30
2022-11-25T06:17:53.574Z,5.30
2022-11-25T06:20:21.465Z,5.20
2022-11-25T06:22:51.131Z,5.20
2022-11-25T06:25:19.236Z,5.20
2022-11-25T06:28:11.232Z,5.30
2022-11-25T06:30:35.276Z,5.30
2022-11-25T06:33:03.245Z,5.30
2022-11-25T06:35:31.200Z,5.20
2022-11-25T06:38:01.375Z,5.20
2022-11-25T06:40:29.529Z,5.20
2022-11-25T06:42:57.524Z,5.20
2022-11-25T06:45:25.549Z,5.20
2022-11-25T06:47:53.722Z,5.20
2022-11-25T06:50:21.682Z,5.40
2022-11-25T06:52:49.578Z,5.40
2022-11-25T06:55:18.954Z,5.40
2022-11-25T06:57:46.834Z,5.50
2022-11-25T07:00:16.553Z,5.50
2022-11-25T07:02:48.523Z,5.40
2022-11-25T07:05:17.004Z,5.40
2022-11-25T07:07:45.131Z,5.50
2022-11-25T07:10:13.423Z,5.40
2022-11-25T07:12:42.646Z,5.40
2022-11-25T07:15:12.405Z,5.40
2022-11-25T07:17:40.535Z,5.30
2022-11-25T07:20:09.674Z,5.30
2022-11-25T07:22:37.908Z,5.30
2022-11-25T07:25:06.530Z,5.30
2022-11-25T07:27:34.681Z,5.30
2022-11-25T07:30:41.457Z,5.40
2022-11-25T07:32:53.416Z,5.40
2022-11-25T07:35:21.646Z,5.50
2022-11-25T07:37:49.575Z,5.50
2022-11-25T07:40:17.596Z,5.50
2022-11-25T07:42:45.552Z,5.60
2022-11-25T07:45:14.851Z,5.60
2022-11-25T07:47:42.796Z,5.80
2022-11-25T07:50:11.311Z,5.80
2022-11-25T07:52:40.576Z,5.80
2022-11-25T07:55:09.397Z,5.90
2022-11-25T07:57:37.335Z,5.90
2022-11-25T08:00:06.885Z,6.00
2022-11-25T08:02:36.208Z,6.00
2022-11-25T08:05:04.239Z,6.00
2022-11-25T08:07:36.471Z,6.10
2022-11-25T08:10:05.135Z,6.10
2022-11-25T08:12:33.431Z,6.10
2022-11-25T08:15:01.487Z,6.10
2022-11-25T08:17:29.384Z,6.10
2022-11-25T08:19:58.807Z,6.10
2022-11-25T08:22:26.765Z,6.10
2022-11-25T08:24:54.782Z,6.10
2022-11-25T08:27:22.681Z,6.10
2022-11-25T08:29:50.566Z,6.10
2022-11-25T08:32:18.488Z,6.20
2022-11-25T08:34:46.736Z,6.10
2022-11-25T08:37:16.091Z,6.10
2022-11-25T08:39:52.483Z,6.10
2022-11-25T08:42:21.469Z,6.10
2022-11-25T08:44:53.329Z,6.10
2022-11-25T08:47:21.572Z,6.10
2022-11-25T08:49:52.066Z,6.10
2022-11-25T08:52:22.234Z,6.10
2022-11-25T08:54:50.607Z,6.10
2022-11-25T08:57:18.721Z,6.10
2022-11-25T08:59:46.877Z,6.10
2022-11-25T09:02:18.301Z,6.20
2022-11-25T09:04:46.352Z,6.20
2022-11-25T09:07:14.589Z,6.30
2022-11-25T09:09:44.279Z,6.30
2022-11-25T09:12:12.278Z,6.30
2022-11-25T09:14:41.191Z,6.30
2022-11-25T09:17:12.580Z,6.20
2022-11-25T09:19:40.590Z,6.30
2022-11-25T09:22:08.635Z,6.40
2022-11-25T09:24:36.757Z,6.50
2022-11-25T09:27:06.455Z,6.50
2022-11-25T09:29:34.706Z,6.60
2022-11-25T09:32:02.844Z,6.60
2022-11-25T09:34:30.836Z,6.70
2022-11-25T09:36:58.752Z,6.70
2022-11-25T09:39:29.735Z,6.80
2022-11-25T09:42:28.846Z,6.90
2022-11-25T09:45:31.336Z,6.90
2022-11-25T09:48:11.160Z,7.00
2022-11-25T09:50:54.925Z,7.10
2022-11-25T09:53:36.680Z,7.10
2022-11-25T09:56:11.369Z,7.10
2022-11-25T09:58:47.645Z,7.20
2022-11-25T10:01:20.168Z,7.20
2022-11-25T10:03:51.511Z,7.30
2022-11-25T10:06:24.642Z,7.30
2022-11-25T10:08:56.464Z,7.40
2022-11-25T10:11:33.267Z,7.40
2022-11-25T10:14:08.298Z,7.50
2022-11-25T10:16:47.152Z,7.50
2022-11-25T10:19:39.473Z,7.50
2022-11-25T10:22:21.210Z,7.60
2022-11-25T10:24:50.267Z,7.60
2022-11-25T10:27:26.308Z,7.70
2022-11-25T10:30:03.790Z,7.70
2022-11-25T10:32:40.921Z,7.70
2022-11-25T10:35:19.859Z,7.80
2022-11-25T10:37:49.895Z,7.80
2022-11-25T10:40:18.981Z,7.90
2022-11-25T10:42:46.974Z,7.90
2022-11-25T10:45:16.553Z,7.90
2022-11-25T10:48:01.996Z,7.90
2022-11-25T10:50:37.999Z,7.90
2022-11-25T10:53:14.981Z,7.90
2022-11-25T10:55:58.743Z,8.00
2022-11-25T10:58:32.465Z,8.00
2022-11-25T11:01:08.041Z,8.00
2022-11-25T11:03:36.285Z,8.00
2022-11-25T11:06:04.293Z,8.00
2022-11-25T11:08:39.875Z,8.10
2022-11-25T11:11:20.055Z,8.20
2022-11-25T11:13:50.641Z,8.30
2022-11-25T11:16:34.056Z,8.40
2022-11-25T11:19:02.323Z,8.40
2022-11-25T11:21:32.931Z,8.40
2022-11-25T11:24:01.582Z,8.40
2022-11-25T11:26:31.849Z,8.40
2022-11-25T11:29:03.114Z,8.40
2022-11-25T11:31:36.837Z,8.40
2022-11-25T11:34:19.488Z,8.50
2022-11-25T11:36:58.705Z,8.70
2022-11-25T11:39:47.794Z,8.80
2022-11-25T11:42:26.125Z,8.90
2022-11-25T11:45:04.376Z,9.00
2022-11-25T11:47:57.396Z,9.10
2022-11-25T11:50:32.192Z,9.20
2022-11-25T11:53:10.292Z,9.30
2022-11-25T11:56:05.920Z,9.30
2022-11-25T11:58:51.828Z,9.40
2022-11-25T12:01:37.688Z,9.30
2022-11-25T12:04:18.925Z,9.20
2022-11-25T12:07:00.431Z,9.10
2022-11-25T12:09:32.850Z,9.10
2022-11-25T12:12:06.221Z,9.10
2022-11-25T12:14:39.914Z,9.20
2022-11-25T12:17:16.332Z,9.30
2022-11-25T12:19:53.132Z,9.40
2022-11-25T12:22:26.316Z,9.50
2022-11-25T12:25:03.284Z,9.70
2022-11-25T12:27:38.781Z,9.80
2022-11-25T12:30:09.161Z,9.90
2022-11-25T12:32:49.652Z,10.10
2022-11-25T12:35:25.751Z,10.10
2022-11-25T12:37:59.863Z,10.20
2022-11-25T12:40:34.327Z,10.20
2022-11-25T12:43:11.983Z,10.30
2022-11-25T12:45:42.609Z,10.40
2022-11-25T12:48:13.113Z,10.40
2022-11-25T12:50:56.877Z,10.50
2022-11-25T12:53:32.933Z,10.60
2022-11-25T12:56:06.144Z,10.70
2022-11-25T12:58:50.788Z,10.80
2022-11-25T13:01:47.936Z,10.90
2022-11-25T13:04:30.761Z,11.20
2022-11-25T13:07:28.463Z,11.30
2022-11-25T13:10:32.856Z,11.30
2022-11-25T13:13:28.576Z,11.30
2022-11-25T13:15:59.702Z,11.40
2022-11-25T13:18:32.773Z,11.30
2022-11-25T13:21:08.393Z,11.30
2022-11-25T13:23:49.569Z,11.40
2022-11-25T13:26:47.673Z,11.40
2022-11-25T13:30:01.942Z,11.50
2022-11-25T13:32:50.861Z,11.50
2022-11-25T13:35:38.173Z,11.60
2022-11-25T13:38:28.990Z,11.70
2022-11-25T13:41:03.543Z,11.60
2022-11-25T13:43:31.726Z,11.60
2022-11-25T13:45:59.916Z,11.60
2022-11-25T13:48:31.294Z,11.60
2022-11-25T13:51:18.510Z,11.60
2022-11-25T13:53:53.770Z,11.60
2022-11-25T13:56:33.267Z,11.50
2022-11-25T13:59:20.415Z,11.40
2022-11-25T14:01:55.623Z,11.30
2022-11-25T14:04:42.164Z,11.20
2022-11-25T14:07:27.741Z,11.20
2022-11-25T14:10:12.002Z,11.10
2022-11-25T14:13:03.170Z,11.00
2022-11-25T14:15:43.228Z,11.10
2022-11-25T14:21:48.295Z,11.00
2022-11-25T14:24:29.063Z,11.00
2022-11-25T14:26:58.755Z,11.00
2022-11-25T14:29:34.676Z,11.00
2022-11-25T14:32:09.005Z,11.00
2022-11-25T14:34:42.171Z,11.00
2022-11-25T14:37:15.519Z,11.00
2022-11-25T14:39:50.453Z,10.90
2022-11-25T14:42:22.122Z,10.90
2022-11-25T14:44:55.686Z,10.90
2022-11-25T14:47:24.953Z,10.90
2022-11-25T14:50:18.827Z,10.90
2022-11-25T14:52:44.586Z,10.80
2022-11-25T14:55:12.964Z,10.80
2022-11-25T14:57:44.929Z,10.80
2022-11-25T15:00:17.049Z,10.80
2022-11-25T15:02:55.284Z,10.80
2022-11-25T15:05:26.246Z,10.80
2022-11-25T15:08:00.707Z,10.80
2022-11-25T15:10:45.368Z,10.80
2022-11-25T15:13:23.396Z,10.70
2022-11-25T15:15:55.646Z,10.80
2022-11-25T15:18:25.746Z,10.70
2022-11-25T15:20:58.665Z,10.80
2022-11-25T15:23:31.956Z,10.80
2022-11-25T15:26:01.094Z,10.80
2022-11-25T15:28:34.630Z,10.70
2022-11-25T15:31:09.281Z,10.60
2022-11-25T15:33:38.303Z,10.60
2022-11-25T15:36:06.862Z,10.50
2022-11-25T15:38:44.583Z,10.40
2022-11-25T15:41:33.085Z,10.30
2022-11-25T15:44:03.596Z,10.30
2022-11-25T15:46:36.798Z,10.30
2022-11-25T15:49:07.334Z,10.20
2022-11-25T15:51:41.682Z,10.10
2022-11-25T15:54:18.372Z,10.10
2022-11-25T15:56:50.104Z,10.00
2022-11-25T15:59:41.332Z,9.90
2022-11-25T16:02:34.214Z,9.90
2022-11-25T16:05:26.081Z,9.70
2022-11-25T16:08:03.241Z,9.70
2022-11-25T16:10:34.322Z,9.60
2022-11-25T16:13:28.845Z,9.50
2022-11-25T16:16:00.286Z,9.50
2022-11-25T16:18:42.328Z,9.50
2022-11-25T16:21:12.995Z,9.50
2022-11-25T16:23:45.256Z,9.40
2022-11-25T16:26:21.238Z,9.20
2022-11-25T16:28:57.140Z,9.10
2022-11-25T16:31:26.471Z,9.30
2022-11-25T16:33:57.701Z,9.30
2022-11-25T16:36:25.859Z,9.20
2022-11-25T16:38:55.260Z,9.20
2022-11-25T16:41:25.632Z,9.10
2022-11-25T16:43:57.102Z,9.00
2022-11-25T16:46:27.608Z,8.90
2022-11-25T16:48:57.487Z,8.80
2022-11-25T16:51:26.052Z,8.70
2022-11-25T16:53:54.011Z,8.70
2022-11-25T16:56:26.920Z,8.40
2022-11-25T16:58:55.784Z,8.30
2022-11-25T17:01:26.683Z,8.20
2022-11-25T17:03:56.306Z,8.10
2022-11-25T17:06:26.551Z,8.10
2022-11-25T17:08:54.555Z,8.00
2022-11-25T17:11:29.260Z,8.00
2022-11-25T17:14:00.163Z,8.00
2022-11-25T17:16:29.893Z,8.00
2022-11-25T17:19:01.023Z,8.10
2022-11-25T17:21:29.647Z,8.10
2022-11-25T17:24:02.482Z,8.10
2022-11-25T17:26:38.316Z,8.30
2022-11-25T17:29:11.450Z,8.70
2022-11-25T17:31:39.890Z,8.90
2022-11-25T17:34:14.323Z,8.90
2022-11-25T17:36:42.288Z,8.80
2022-11-25T17:39:11.560Z,8.80
2022-11-25T17:41:44.202Z,8.80
2022-11-25T17:44:21.887Z,8.70
2022-11-25T17:46:50.960Z,8.70
2022-11-25T17:49:20.669Z,8.80
2022-11-25T17:51:48.795Z,8.80
2022-11-25T17:54:16.987Z,9.00
2022-11-25T17:56:50.697Z,9.10
2022-11-25T17:59:25.074Z,9.20
2022-11-25T18:01:53.065Z,9.30
2022-11-25T18:04:24.334Z,9.40
2022-11-25T18:06:52.888Z,9.40
2022-11-25T18:09:21.701Z,9.50
2022-11-25T18:11:52.266Z,9.70
2022-11-25T18:14:26.592Z,9.60
2022-11-25T18:16:55.820Z,9.60
2022-11-25T18:19:25.550Z,9.60
2022-11-25T18:21:53.795Z,9.60
2022-11-25T18:24:21.808Z,9.60
2022-11-25T18:26:53.058Z,9.60
2022-11-25T18:29:24.629Z,9.60
2022-11-25T18:31:53.589Z,9.60
2022-11-25T18:34:21.469Z,9.70
2022-11-25T18:36:51.306Z,9.60
2022-11-25T18:39:19.963Z,9.70
2022-11-25T18:41:49.606Z,9.70
2022-11-25T18:44:25.811Z,9.70
2022-11-25T18:46:54.985Z,9.60
2022-11-25T18:49:23.842Z,9.70
2022-11-25T18:51:53.327Z,9.60
2022-11-25T18:54:21.290Z,9.60
2022-11-25T18:56:52.863Z,9.50
2022-11-25T18:59:27.937Z,9.50
2022-11-25T19:01:56.080Z,9.60
2022-11-25T19:04:24.311Z,9.60
2022-11-25T19:06:53.768Z,9.60
2022-11-25T19:09:21.711Z,9.70
2022-11-25T19:11:52.864Z,9.60
2022-11-25T19:14:30.050Z,9.60
2022-11-25T19:17:01.920Z,9.60
2022-11-25T19:19:30.133Z,9.60
2022-11-25T19:22:01.329Z,9.60
2022-11-25T19:24:29.533Z,9.60
2022-11-25T19:26:58.402Z,9.60
2022-11-25T19:29:33.846Z,9.60
2022-11-25T19:32:05.741Z,9.60
2022-11-25T19:34:37.110Z,9.60
2022-11-25T19:37:06.858Z,9.70
2022-11-25T19:39:36.734Z,9.70
2022-11-25T19:42:04.992Z,9.70
2022-11-25T19:44:33.013Z,9.70
2022-11-25T19:47:15.185Z,9.70
2022-11-25T19:49:44.374Z,9.70
2022-11-25T19:52:17.299Z,9.70
2022-11-25T19:54:45.368Z,9.60
2022-11-25T19:57:17.463Z,9.60
2022-11-25T19:59:45.908Z,9.60
2022-11-25T20:02:16.677Z,9.70
2022-11-25T20:04:46.813Z,9.70
2022-11-25T20:07:18.781Z,9.60
2022-11-25T20:09:47.489Z,9.60
2022-11-25T20:12:21.445Z,9.60
2022-11-25T20:14:50.348Z,9.60
2022-11-25T20:17:25.439Z,9.60
2022-11-25T20:20:03.772Z,9.60
2022-11-25T20:22:37.153Z,9.60
2022-11-25T20:25:07.755Z,9.60
2022-11-25T20:27:35.722Z,9.60
2022-11-25T20:30:04.068Z,9.60
2022-11-25T20:32:34.048Z,9.60
2022-11-25T20:35:02.068Z,9.70
2022-11-25T20:37:40.434Z,9.70
2022-11-25T20:40:17.105Z,9.60
2022-11-25T20:42:45.139Z,9.60
2022-11-25T20:45:16.035Z,9.60
2022-11-25T20:47:44.376Z,9.60
2022-11-25T20:50:14.745Z,9.60
2022-11-25T20:52:44.209Z,9.60
2022-11-25T20:55:23.799Z,9.50
2022-11-25T20:57:52.810Z,9.40
2022-11-25T21:00:22.725Z,9.40
2022-11-25T21:02:51.040Z,9.50
2022-11-25T21:05:19.651Z,9.50
2022-11-25T21:07:50.767Z,9.50
2022-11-25T21:10:23.440Z,9.50
2022-11-25T21:12:51.483Z,9.50
2022-11-25T21:15:21.885Z,9.50
2022-11-25T21:17:50.024Z,9.50
2022-11-25T21:20:19.862Z,9.40
2022-11-25T21:22:51.357Z,9.40
2022-11-25T21:25:21.309Z,9.30
2022-11-25T21:27:50.387Z,9.20
2022-11-25T21:30:20.319Z,9.10
2022-11-25T21:32:48.532Z,9.00
2022-11-25T21:35:16.861Z,8.90
2022-11-25T21:37:45.856Z,8.80
2022-11-25T21:40:35.715Z,8.80
2022-11-25T21:43:04.424Z,8.60
2022-11-25T21:45:32.572Z,8.60
2022-11-25T21:48:00.514Z,8.50
2022-11-25T21:50:29.953Z,8.50
2022-11-25T21:52:58.291Z,8.40
2022-11-25T21:55:27.821Z,8.40
2022-11-25T21:57:55.874Z,8.40
2022-11-25T22:00:26.221Z,8.30
2022-11-25T22:02:54.685Z,8.30
2022-11-25T22:05:25.463Z,8.30
2022-11-25T22:07:54.977Z,8.30
2022-11-25T22:10:23.835Z,8.30
2022-11-25T22:12:53.198Z,8.30
2022-11-25T22:15:22.798Z,8.30
2022-11-25T22:17:56.163Z,8.30
2022-11-25T22:20:30.155Z,8.30
2022-11-25T22:22:58.282Z,8.30
2022-11-25T22:25:27.825Z,8.30
2022-11-25T22:27:57.487Z,8.50
2022-11-25T22:30:25.559Z,8.60
2022-11-25T22:33:01.049Z,8.60
2022-11-25T22:35:29.365Z,8.30
2022-11-25T22:37:57.312Z,8.20
2022-11-25T22:40:25.842Z,8.00
2022-11-25T22:42:56.030Z,8.10
2022-11-25T22:45:32.044Z,8.10
2022-11-25T22:48:01.914Z,8.10
2022-11-25T22:50:32.457Z,8.00
2022-11-25T22:53:01.280Z,8.00
2022-11-25T22:55:31.384Z,8.00
2022-11-25T22:58:00.909Z,7.90
2022-11-25T23:00:33.791Z,8.00
2022-11-25T23:03:03.813Z,7.90
2022-11-25T23:05:34.184Z,7.90
2022-11-25T23:08:02.807Z,7.90
2022-11-25T23:10:32.448Z,7.90
2022-11-25T23:13:00.380Z,8.00
2022-11-25T23:15:28.364Z,8.20
2022-11-25T23:17:59.063Z,8.30
2022-11-25T23:20:31.308Z,8.40
2022-11-25T23:22:59.939Z,8.40
2022-11-25T23:25:28.091Z,8.40
2022-11-25T23:27:56.004Z,8.40
2022-11-25T23:30:24.495Z,8.50
2022-11-25T23:32:54.345Z,8.30
2022-11-25T23:35:33.645Z,8.50
2022-11-25T23:38:01.773Z,8.30
2022-11-25T23:40:29.989Z,8.20
2022-11-25T23:42:58.232Z,8.10
2022-11-25T23:45:27.691Z,7.90
2022-11-25T23:47:57.335Z,7.70
2022-11-25T23:50:32.240Z,7.50
2022-11-25T23:53:03.233Z,7.50
2022-11-25T23:55:34.688Z,7.60
2022-11-25T23:58:03.870Z,7.50
